Time;durP1;ratioP1;P1;durP2;ratioP2;P2;SDS_P1;SDS_P2;PMS_P1;PMS_P2;Temp;Humidity;BMP_temperature;BMP_pressure;BME280_temperature;BME280_humidity;BME280_pressure;Samples;Min_cycle;Max_cycle;Signal;HPM_P1;HPM_P2
2023/01/22 00:00:04;;;;;;;2.35;1.10;;;18.20;36.30;;;;;;5120661;27;20076;-66
2023/01/22 00:02:30;;;;;;;7.05;0.90;;;18.10;36.30;;;;;;5109640;28;20739;-66
2023/01/22 00:04:57;;;;;;;6.15;1.33;;;18.10;36.80;;;;;;5110467;28;20550;-65
2023/01/22 00:07:23;;;;;;;2.88;1.20;;;18.00;36.00;;;;;;5110057;28;20088;-67
2023/01/22 00:09:49;;;;;;;2.35;1.10;;;18.00;36.30;;;;;;5110380;28;20098;-68
2023/01/22 00:12:16;;;;;;;1.98;1.00;;;17.90;36.70;;;;;;5110781;28;20477;-67
2023/01/22 00:14:43;;;;;;;3.33;1.10;;;17.90;36.90;;;;;;5109713;28;20069;-65
2023/01/22 00:17:09;;;;;;;2.92;1.10;;;17.80;37.40;;;;;;5108638;28;20628;-67
2023/01/22 00:19:36;;;;;;;3.65;1.30;;;17.80;37.40;;;;;;5110798;27;20096;-68
2023/01/22 00:22:02;;;;;;;4.95;1.90;;;17.70;36.80;;;;;;5111060;28;20067;-64
2023/01/22 00:24:28;;;;;;;6.82;1.73;;;17.70;36.60;;;;;;5110442;28;20060;-66
2023/01/22 00:26:55;;;;;;;5.63;1.50;;;17.60;36.50;;;;;;5108263;28;20112;-67
2023/01/22 00:29:21;;;;;;;4.80;2.00;;;17.50;36.80;;;;;;5108763;28;20442;-68
2023/01/22 00:31:47;;;;;;;7.38;2.20;;;17.40;37.00;;;;;;5107828;28;20075;-66
2023/01/22 00:34:14;;;;;;;7.68;2.08;;;17.30;36.70;;;;;;5108540;28;20498;-67
2023/01/22 00:36:41;;;;;;;6.43;1.73;;;17.30;36.90;;;;;;5110183;28;20075;-67
2023/01/22 00:39:09;;;;;;;5.30;2.05;;;17.20;37.20;;;;;;5109412;28;20542;-65
2023/01/22 00:41:35;;;;;;;6.90;2.40;;;17.10;37.30;;;;;;5109270;28;20537;-64
2023/01/22 00:44:02;;;;;;;6.40;2.13;;;17.10;37.70;;;;;;5109464;28;20128;-66
2023/01/22 00:46:28;;;;;;;12.15;2.40;;;17.00;38.10;;;;;;5110203;28;20539;-67
2023/01/22 00:48:55;;;;;;;9.20;2.83;;;17.00;38.40;;;;;;5108178;28;20088;-66
2023/01/22 00:51:21;;;;;;;6.38;2.63;;;16.80;38.20;;;;;;5108775;28;20061;-67
2023/01/22 00:53:48;;;;;;;7.25;2.25;;;16.70;38.20;;;;;;5107783;28;20101;-68
2023/01/22 00:56:15;;;;;;;11.20;3.28;;;16.70;38.60;;;;;;5108882;28;20110;-66
2023/01/22 00:58:42;;;;;;;12.70;6.05;;;16.50;38.70;;;;;;5110880;27;20063;-65
2023/01/22 01:01:08;;;;;;;10.65;5.90;;;16.40;39.30;;;;;;5114838;27;20117;-66
2023/01/22 01:03:36;;;;;;;15.50;4.00;;;16.40;39.10;;;;;;5108983;28;20059;-64
2023/01/22 01:06:18;;;;;;;8.13;3.30;;;16.30;39.10;;;;;;5118679;27;20430;-65
2023/01/22 01:08:45;;;;;;;8.85;3.40;;;16.30;39.60;;;;;;5109277;28;20060;-65
2023/01/22 01:11:21;;;;;;;11.68;3.10;;;16.20;40.30;;;;;;5108024;28;20410;-66
2023/01/22 01:13:48;;;;;;;14.50;3.47;;;16.00;40.20;;;;;;5107409;28;20511;-65
2023/01/22 01:16:18;;;;;;;6.30;2.90;;;15.90;40.90;;;;;;5109439;28;20094;-66
2023/01/22 01:18:45;;;;;;;7.10;2.92;;;15.80;40.90;;;;;;5107200;28;20069;-65
2023/01/22 01:21:12;;;;;;;7.80;2.70;;;15.70;41.00;;;;;;5107240;28;20494;-65
2023/01/22 01:23:39;;;;;;;8.27;3.38;;;15.60;40.80;;;;;;5108457;28;20524;-64
2023/01/22 01:26:11;;;;;;;14.02;3.30;;;15.50;41.00;;;;;;5108478;28;20119;-65
2023/01/22 01:28:39;;;;;;;12.77;3.55;;;15.40;41.20;;;;;;5107666;28;20079;-65
2023/01/22 01:31:08;;;;;;;8.32;3.80;;;15.30;42.00;;;;;;5108467;28;20070;-64
2023/01/22 01:33:35;;;;;;;16.80;4.95;;;15.10;42.00;;;;;;5107176;28;20058;-66
2023/01/22 01:36:05;;;;;;;11.90;5.05;;;14.90;42.80;;;;;;5109431;28;20067;-69
2023/01/22 01:38:32;;;;;;;11.02;4.95;;;14.90;43.80;;;;;;5108106;28;20079;-64
2023/01/22 01:40:58;;;;;;;14.43;5.55;;;14.70;44.60;;;;;;5107401;28;20588;-67
2023/01/22 01:43:25;;;;;;;17.58;5.75;;;14.60;45.50;;;;;;5108950;28;20077;-65
2023/01/22 01:45:52;;;;;;;20.20;5.45;;;14.50;46.00;;;;;;5112509;27;20073;-65
2023/01/22 01:48:23;;;;;;;24.45;5.45;;;14.50;46.40;;;;;;5109133;28;20082;-69
2023/01/22 01:51:06;;;;;;;21.15;5.75;;;14.50;46.50;;;;;;5114053;27;20562;-68
2023/01/22 01:53:33;;;;;;;35.28;7.03;;;14.40;47.20;;;;;;5109907;27;20061;-63
2023/01/22 01:56:02;;;;;;;29.55;5.35;;;14.40;47.50;;;;;;5110445;28;20097;-65
2023/01/22 01:58:33;;;;;;;44.05;25.98;;;14.30;46.80;;;;;;5111491;28;20520;-64
2023/01/22 02:01:14;;;;;;;27.10;12.27;;;14.20;46.20;;;;;;5108817;28;20083;-63
2023/01/22 02:03:41;;;;;;;19.52;9.93;;;14.10;47.40;;;;;;5107390;28;20099;-64
2023/01/22 02:06:16;;;;;;;27.52;7.75;;;14.00;47.40;;;;;;5112675;28;20582;-66
2023/01/22 02:08:47;;;;;;;15.98;6.35;;;14.00;47.70;;;;;;5112077;28;20088;-64
2023/01/22 02:11:17;;;;;;;17.42;5.65;;;13.80;47.80;;;;;;5114601;27;20163;-65
2023/01/22 02:13:52;;;;;;;20.67;7.07;;;13.80;48.10;;;;;;5120302;27;20065;-64
2023/01/22 02:16:19;;;;;;;21.13;7.03;;;13.70;48.30;;;;;;5118243;27;20558;-65
2023/01/22 02:18:45;;;;;;;;;;;13.60;48.70;;;;;;5115087;27;20073;-66
2023/01/22 02:21:40;;;;;;;47.47;19.00;;;13.60;49.30;;;;;;5094089;28;19965;-66
2023/01/22 02:24:10;;;;;;;87.60;37.50;;;13.50;48.60;;;;;;5092681;28;20090;-66
2023/01/22 02:26:38;;;;;;;121.00;55.00;;;13.40;49.60;;;;;;5118260;27;20471;-66
2023/01/22 02:29:06;;;;;;;95.20;42.72;;;13.30;49.80;;;;;;5095951;28;20101;-65
2023/01/22 02:31:34;;;;;;;56.13;27.15;;;13.30;50.10;;;;;;5094021;28;20077;-63
2023/01/22 02:34:01;;;;;;;43.25;18.95;;;13.20;50.50;;;;;;5094484;27;20070;-64
2023/01/22 02:36:29;;;;;;;32.92;12.40;;;13.20;50.90;;;;;;5117214;27;20399;-63
2023/01/22 02:38:56;;;;;;;32.13;11.88;;;13.10;51.20;;;;;;5112144;27;20066;-63
2023/01/22 02:41:22;;;;;;;31.00;10.68;;;13.10;51.10;;;;;;5116203;27;20073;-65
2023/01/22 02:43:49;;;;;;;33.05;11.88;;;13.00;51.40;;;;;;5117785;27;20061;-64
2023/01/22 02:46:15;;;;;;;;;;;13.00;51.80;;;;;;5114296;27;20098;-65
2023/01/22 02:48:41;;;;;;;37.97;13.65;;;13.00;52.10;;;;;;5115762;27;19973;-64
2023/01/22 02:51:08;;;;;;;34.42;15.07;;;12.80;52.50;;;;;;5116747;27;20068;-63
2023/01/22 02:53:34;;;;;;;36.17;14.75;;;12.80;52.80;;;;;;5117493;27;20066;-63
2023/01/22 02:56:05;;;;;;;30.80;11.32;;;12.70;53.20;;;;;;5120680;27;20160;-68
2023/01/22 02:58:33;;;;;;;29.83;10.68;;;12.70;52.40;;;;;;5117090;27;20531;-66
2023/01/22 03:01:17;;;;;;;34.75;9.90;;;12.60;52.10;;;;;;5114278;27;20098;-63
2023/01/22 03:03:52;;;;;;;31.85;10.13;;;12.60;52.00;;;;;;5112292;27;20431;-65
2023/01/22 03:06:20;;;;;;;30.42;10.60;;;12.50;52.40;;;;;;5111719;27;20196;-65
2023/01/22 03:08:48;;;;;;;36.85;10.63;;;12.50;53.30;;;;;;5119608;27;20090;-63
2023/01/22 03:11:14;;;;;;;30.63;10.77;;;12.40;53.00;;;;;;5118630;27;20488;-63
2023/01/22 03:21:54;;;;;;;54.30;13.60;;;12.10;53.40;;;;;;5115033;27;20604;-66
2023/01/22 03:24:20;;;;;;;;;;;12.10;53.30;;;;;;5118935;27;20080;-64
2023/01/22 03:26:46;;;;;;;38.13;14.15;;;12.10;53.70;;;;;;5117181;27;20394;-67
2023/01/22 03:29:12;;;;;;;;;;;12.00;53.70;;;;;;5114175;27;20441;-66
2023/01/22 03:31:39;;;;;;;61.75;15.68;;;11.90;53.90;;;;;;5115024;27;20365;-66
2023/01/22 03:34:05;;;;;;;;;;;11.90;53.50;;;;;;5115236;27;20085;-64
2023/01/22 03:36:31;;;;;;;44.53;16.45;;;11.90;53.30;;;;;;5113317;27;19963;-66
2023/01/22 03:38:57;;;;;;;;;;;11.90;53.40;;;;;;5108973;27;20075;-68
2023/01/22 03:41:24;;;;;;;53.15;18.30;;;11.80;54.70;;;;;;5110603;27;19976;-66
2023/01/22 03:43:50;;;;;;;;;;;11.80;54.20;;;;;;5117450;27;20167;-69
2023/01/22 03:46:18;;;;;;;54.15;17.95;;;11.70;54.40;;;;;;5113133;27;19955;-71
2023/01/22 03:48:48;;;;;;;62.03;19.25;;;11.70;54.70;;;;;;5110202;27;20200;-67
2023/01/22 03:51:16;;;;;;;60.53;19.95;;;11.70;54.90;;;;;;5116186;27;20070;-67
2023/01/22 03:53:43;;;;;;;53.15;20.33;;;11.70;55.20;;;;;;5117582;27;20101;-66
2023/01/22 03:56:15;;;;;;;63.63;20.30;;;11.60;55.20;;;;;;5112468;27;20078;-68
2023/01/22 03:58:42;;;;;;;60.75;19.45;;;11.60;55.40;;;;;;5112397;27;20073;-69
2023/01/22 04:01:14;;;;;;;58.80;20.08;;;11.50;55.60;;;;;;5112171;27;20108;-70
2023/01/22 04:03:41;;;;;;;63.65;20.90;;;11.50;56.60;;;;;;5112698;27;20070;-69
2023/01/22 04:06:09;;;;;;;65.25;22.70;;;11.40;56.80;;;;;;5115883;27;20062;-68
2023/01/22 04:08:37;;;;;;;68.93;21.13;;;11.40;56.80;;;;;;5110257;28;20073;-66
2023/01/22 04:11:04;;;;;;;66.25;20.88;;;11.30;56.70;;;;;;5117918;27;20070;-69
2023/01/22 04:13:32;;;;;;;76.10;24.05;;;11.30;56.40;;;;;;5116912;27;20065;-68
2023/01/22 04:15:58;;;;;;;72.18;22.92;;;11.30;56.90;;;;;;5123564;27;20198;-66
2023/01/22 04:18:25;;;;;;;67.15;23.88;;;11.30;57.10;;;;;;5111147;27;20074;-67
2023/01/22 04:20:52;;;;;;;70.13;23.85;;;11.30;58.20;;;;;;5118471;27;20515;-66
2023/01/22 04:23:20;;;;;;;82.45;26.75;;;11.20;58.30;;;;;;5112340;27;20090;-68
2023/01/22 04:25:48;;;;;;;105.50;26.92;;;11.10;58.10;;;;;;5115064;27;20543;-67
2023/01/22 04:28:15;;;;;;;75.03;26.80;;;11.10;57.70;;;;;;5115909;27;20119;-66
2023/01/22 04:30:43;;;;;;;77.35;26.00;;;11.20;57.50;;;;;;5119396;27;20070;-70
2023/01/22 04:33:10;;;;;;;90.47;27.88;;;11.10;58.40;;;;;;5111045;28;20082;-68
2023/01/22 04:35:37;;;;;;;105.20;29.45;;;11.00;58.60;;;;;;5113927;27;20413;-68
2023/01/22 04:38:06;;;;;;;106.40;32.22;;;10.90;58.40;;;;;;5111905;27;20069;-69
2023/01/22 04:40:33;;;;;;;97.40;34.38;;;10.90;57.90;;;;;;5114179;27;20446;-67
2023/01/22 04:43:04;;;;;;;100.25;32.63;;;10.80;58.30;;;;;;5109870;28;20082;-70
2023/01/22 04:45:30;;;;;;;110.22;32.92;;;10.90;58.50;;;;;;5112989;27;20121;-66
2023/01/22 04:47:57;;;;;;;109.43;34.65;;;10.80;58.80;;;;;;5111742;27;20086;-65
2023/01/22 04:50:27;;;;;;;105.88;33.88;;;10.80;59.00;;;;;;5114762;27;20077;-64
2023/01/22 04:52:55;;;;;;;119.65;33.25;;;10.80;58.80;;;;;;5111293;27;20131;-64
2023/01/22 04:55:22;;;;;;;100.88;33.05;;;10.80;58.50;;;;;;5111944;27;20078;-64
2023/01/22 04:57:48;;;;;;;108.53;34.88;;;10.70;58.60;;;;;;5112946;27;20597;-63
2023/01/22 05:00:16;;;;;;;116.53;36.63;;;10.70;60.30;;;;;;5110339;27;20532;-67
2023/01/22 05:02:42;;;;;;;109.35;35.17;;;10.60;59.50;;;;;;5112603;27;20500;-65
2023/01/22 05:05:09;;;;;;;97.40;33.97;;;10.60;58.90;;;;;;5111748;27;20066;-66
2023/01/22 05:07:38;;;;;;;111.95;34.28;;;10.50;58.90;;;;;;5111141;27;20469;-65
2023/01/22 05:10:05;;;;;;;111.63;35.10;;;10.50;58.90;;;;;;5111823;27;20507;-66
2023/01/22 05:12:33;;;;;;;116.00;35.42;;;10.40;59.30;;;;;;5112134;27;20549;-65
2023/01/22 05:14:59;;;;;;;104.88;35.33;;;10.40;59.10;;;;;;5113884;27;20126;-67
2023/01/22 05:17:25;;;;;;;;;;;10.40;59.50;;;;;;5112426;27;20075;-66
2023/01/22 05:19:53;;;;;;;101.85;33.65;;;10.30;59.20;;;;;;5110440;27;20363;-65
2023/01/22 05:22:19;;;;;;;;;;;10.30;60.10;;;;;;5112505;27;20078;-66
2023/01/22 05:24:46;;;;;;;107.43;36.70;;;10.20;61.20;;;;;;5110793;27;20019;-67
2023/01/22 05:27:12;;;;;;;;;;;10.10;60.50;;;;;;5112293;27;20067;-67
2023/01/22 05:29:38;;;;;;;119.45;34.63;;;10.10;59.90;;;;;;5115168;27;20065;-68
2023/01/22 05:32:04;;;;;;;;;;;10.30;60.30;;;;;;5091822;27;20073;-67
2023/01/22 05:34:30;;;;;;;115.15;34.75;;;10.30;60.40;;;;;;5113451;27;20003;-66
2023/01/22 05:36:57;;;;;;;;;;;10.20;60.00;;;;;;5113453;27;20166;-67
2023/01/22 05:39:23;;;;;;;94.82;32.80;;;10.20;59.90;;;;;;5110544;27;20445;-66
2023/01/22 05:41:49;;;;;;;;;;;10.10;60.30;;;;;;5113724;27;20074;-67
2023/01/22 05:44:15;;;;;;;119.55;33.15;;;10.00;60.60;;;;;;5111397;27;19958;-70
2023/01/22 05:46:41;;;;;;;;;;;9.90;61.10;;;;;;5117509;27;20080;-69
2023/01/22 05:49:08;;;;;;;128.77;35.47;;;10.00;61.60;;;;;;5111741;27;19954;-66
2023/01/22 05:51:34;;;;;;;117.53;34.33;;;10.00;60.70;;;;;;5110848;27;20072;-67
2023/01/22 05:54:01;;;;;;;90.00;32.20;;;10.00;60.30;;;;;;5111490;27;20102;-66
2023/01/22 05:56:27;;;;;;;;;;;10.10;61.10;;;;;;5113971;27;20078;-66
2023/01/22 05:58:53;;;;;;;94.05;32.15;;;10.10;61.10;;;;;;5114295;27;20041;-68
2023/01/22 06:01:19;;;;;;;;;;;10.10;61.20;;;;;;5115486;27;20138;-67
2023/01/22 06:03:45;;;;;;;123.97;36.28;;;10.10;61.00;;;;;;5110435;27;20439;-67
2023/01/22 06:06:12;;;;;;;;;;;10.10;61.40;;;;;;5114129;27;20073;-68
2023/01/22 06:08:39;;;;;;;110.45;34.47;;;10.10;61.60;;;;;;5112822;28;20003;-68
2023/01/22 06:11:09;;;;;;;118.00;34.17;;;10.10;61.60;;;;;;5116093;28;20084;-66
2023/01/22 06:13:37;;;;;;;113.00;35.50;;;10.00;61.10;;;;;;5110043;28;20082;-67
2023/01/22 06:16:03;;;;;;;109.93;34.25;;;9.90;61.00;;;;;;5113868;28;20465;-67
2023/01/22 06:18:30;;;;;;;117.00;34.67;;;9.80;61.50;;;;;;5113534;28;20095;-67
2023/01/22 06:21:01;;;;;;;121.63;36.15;;;9.80;61.80;;;;;;5088749;28;20566;-67
2023/01/22 06:23:29;;;;;;;119.20;35.80;;;9.80;62.20;;;;;;5108935;28;20116;-65
2023/01/22 06:25:58;;;;;;;110.30;35.03;;;9.90;62.10;;;;;;5119081;28;20123;-66
2023/01/22 06:28:25;;;;;;;111.32;33.40;;;9.90;62.40;;;;;;5110558;28;20119;-66
2023/01/22 06:30:54;;;;;;;99.07;35.58;;;9.90;62.60;;;;;;5115957;28;20553;-67
2023/01/22 06:33:20;;;;;;;122.20;35.78;;;9.80;62.20;;;;;;5111839;28;20535;-67
2023/01/22 06:35:46;;;;;;;;;;;9.80;62.40;;;;;;5114036;28;20065;-65
2023/01/22 06:38:12;;;;;;;108.63;35.85;;;9.80;63.20;;;;;;5091297;28;19955;-65
2023/01/22 06:40:38;;;;;;;;;;;9.70;63.40;;;;;;5090395;28;20224;-65
2023/01/22 06:43:07;;;;;;;127.28;39.15;;;9.70;64.10;;;;;;5109627;28;20042;-68
2023/01/22 06:45:34;;;;;;;121.80;37.95;;;9.60;63.60;;;;;;5106602;28;20098;-69
2023/01/22 06:48:00;;;;;;;;;;;9.60;63.80;;;;;;5105985;28;20085;-67
2023/01/22 06:50:26;;;;;;;131.82;42.17;;;9.60;63.70;;;;;;5113442;28;20002;-68
2023/01/22 06:52:52;;;;;;;;;;;9.60;64.90;;;;;;5090049;28;20078;-68
2023/01/22 06:55:18;;;;;;;130.60;43.55;;;9.60;64.90;;;;;;5116276;28;19963;-65
2023/01/22 06:57:44;;;;;;;;;;;9.60;64.50;;;;;;5111690;27;20412;-64
2023/01/22 07:00:11;;;;;;;136.98;43.95;;;9.60;64.50;;;;;;5115777;27;19986;-67
2023/01/22 07:02:37;;;;;;;117.63;42.92;;;9.60;64.40;;;;;;5122713;27;20071;-69
2023/01/22 07:05:04;;;;;;;;;;;9.60;64.40;;;;;;5116676;27;20172;-67
2023/01/22 07:07:30;;;;;;;131.02;46.05;;;9.60;64.30;;;;;;5096145;27;20032;-66
2023/01/22 07:09:57;;;;;;;114.55;45.20;;;9.50;64.30;;;;;;5115783;27;20066;-67
2023/01/22 07:12:23;;;;;;;;;;;9.50;64.20;;;;;;5114062;27;20175;-67
2023/01/22 07:14:49;;;;;;;126.07;46.22;;;9.50;64.40;;;;;;5116266;27;19975;-66
2023/01/22 07:17:15;;;;;;;;;;;9.50;65.10;;;;;;5115428;27;20082;-68
2023/01/22 07:19:41;;;;;;;139.38;48.38;;;9.40;65.80;;;;;;5116429;27;20068;-69
2023/01/22 07:22:07;;;;;;;;;;;9.40;65.50;;;;;;5118587;27;20066;-67
2023/01/22 07:24:34;;;;;;;130.75;46.83;;;9.40;65.70;;;;;;5116464;27;20045;-68
2023/01/22 07:27:01;;;;;;;;;;;9.30;65.60;;;;;;5114722;27;20937;-65
2023/01/22 07:29:27;;;;;;;132.90;49.20;;;9.30;66.30;;;;;;5113396;27;20419;-64
2023/01/22 07:31:53;;;;;;;;;;;9.20;66.40;;;;;;5113182;27;20084;-65
2023/01/22 07:34:20;;;;;;;141.70;52.45;;;9.20;66.80;;;;;;5112516;27;19958;-68
2023/01/22 07:36:46;;;;;;;150.18;49.50;;;9.30;66.90;;;;;;5093525;28;20582;-68
2023/01/22 07:39:13;;;;;;;128.38;49.25;;;9.20;66.50;;;;;;5093179;28;20070;-65
2023/01/22 07:41:39;;;;;;;;;;;9.20;66.40;;;;;;5111706;27;20199;-65
2023/01/22 07:44:07;;;;;;;135.77;50.92;;;9.10;66.70;;;;;;5110085;28;20000;-64
2023/01/22 07:46:37;;;;;;;138.98;56.78;;;9.10;66.60;;;;;;5118106;27;20083;-69
2023/01/22 07:49:05;;;;;;;175.95;71.32;;;9.10;67.00;;;;;;5116228;27;20095;-66
2023/01/22 07:51:31;;;;;;;171.85;74.60;;;8.90;67.50;;;;;;5117747;27;20062;-66
2023/01/22 07:53:57;;;;;;;173.30;72.57;;;8.90;67.60;;;;;;5115489;27;20125;-69
2023/01/22 07:56:23;;;;;;;;;;;8.90;67.20;;;;;;5110300;27;20481;-67
2023/01/22 07:58:50;;;;;;;161.30;69.13;;;8.90;67.40;;;;;;5112150;27;20022;-68
2023/01/22 08:01:16;;;;;;;;;;;8.90;67.70;;;;;;5110234;27;20163;-66
2023/01/22 08:03:43;;;;;;;144.10;60.88;;;8.90;67.60;;;;;;5112353;27;20043;-66
2023/01/22 08:06:12;;;;;;;148.80;61.33;;;8.90;68.10;;;;;;5112396;27;20067;-66
2023/01/22 08:08:38;;;;;;;134.20;53.78;;;8.90;67.70;;;;;;5108813;28;20067;-68
2023/01/22 08:11:04;;;;;;;118.28;54.17;;;8.90;67.20;;;;;;5109291;28;20230;-65
2023/01/22 08:13:30;;;;;;;;;;;8.90;67.20;;;;;;5113310;27;20154;-66
2023/01/22 08:15:57;;;;;;;136.80;56.30;;;8.80;68.10;;;;;;5109720;27;19987;-66
2023/01/22 08:18:23;;;;;;;;;;;8.80;68.50;;;;;;5113347;27;20078;-66
2023/01/22 08:20:50;;;;;;;150.35;60.42;;;8.70;68.70;;;;;;5111185;27;19996;-65
2023/01/22 08:23:16;;;;;;;147.43;61.88;;;8.70;68.60;;;;;;5112807;27;20101;-66
2023/01/22 08:25:43;;;;;;;161.63;68.68;;;8.70;68.20;;;;;;5109588;27;20065;-69
2023/01/22 08:28:09;;;;;;;171.23;74.93;;;8.70;68.20;;;;;;5108965;28;20071;-68
2023/01/22 08:30:35;;;;;;;;;;;8.70;67.80;;;;;;5110642;27;20078;-70
2023/01/22 08:33:02;;;;;;;158.50;66.68;;;8.60;68.10;;;;;;5108460;28;19965;-66
2023/01/22 08:35:31;;;;;;;148.52;63.58;;;8.60;68.40;;;;;;5114285;27;20556;-67
2023/01/22 08:37:59;;;;;;;144.23;57.03;;;8.60;69.00;;;;;;5111556;27;20142;-68
2023/01/22 08:40:26;;;;;;;149.00;60.15;;;8.60;68.60;;;;;;5108305;27;20578;-64
2023/01/22 08:42:53;;;;;;;131.48;53.22;;;8.50;68.40;;;;;;5109649;27;20114;-65
2023/01/22 08:45:20;;;;;;;141.82;57.13;;;8.50;68.90;;;;;;5111104;27;20075;-66
2023/01/22 08:47:47;;;;;;;157.70;62.38;;;8.50;69.20;;;;;;5111358;27;20126;-65
2023/01/22 08:50:13;;;;;;;146.52;65.40;;;8.50;69.20;;;;;;5109963;27;20079;-67
2023/01/22 08:52:40;;;;;;;151.95;67.88;;;8.50;69.50;;;;;;5108495;28;20087;-66
2023/01/22 08:55:08;;;;;;;150.25;62.67;;;8.40;69.30;;;;;;5109183;27;20446;-67
2023/01/22 08:57:36;;;;;;;150.73;64.80;;;8.30;69.00;;;;;;5110339;27;20146;-65
2023/01/22 09:00:04;;;;;;;139.05;62.08;;;8.20;69.40;;;;;;5110902;27;20082;-67
2023/01/22 09:02:30;;;;;;;147.70;63.20;;;8.10;70.40;;;;;;5110268;27;20156;-68
2023/01/22 09:04:56;;;;;;;;;;;8.20;71.00;;;;;;5109707;27;20091;-67
2023/01/22 09:07:23;;;;;;;160.55;65.97;;;8.20;70.20;;;;;;5108885;28;19958;-66
2023/01/22 09:09:49;;;;;;;138.80;59.25;;;8.20;70.30;;;;;;5109873;27;20077;-67
2023/01/22 09:12:16;;;;;;;126.65;57.58;;;8.20;70.20;;;;;;5110690;27;20133;-68
2023/01/22 09:14:42;;;;;;;;;;;8.20;69.70;;;;;;5110017;28;20148;-66
2023/01/22 09:17:08;;;;;;;101.13;46.95;;;8.10;69.00;;;;;;5111358;27;20049;-67
2023/01/22 09:19:35;;;;;;;119.93;48.28;;;8.00;67.80;;;;;;5107875;28;20087;-66
2023/01/22 09:22:05;;;;;;;105.10;45.42;;;8.00;68.30;;;;;;5107964;28;20065;-66
2023/01/22 09:24:32;;;;;;;100.22;44.15;;;7.80;68.70;;;;;;5109919;27;20058;-67
2023/01/22 09:26:58;;;;;;;105.15;42.47;;;7.70;69.80;;;;;;5109692;27;20131;-66
2023/01/22 09:29:25;;;;;;;102.72;43.08;;;7.70;69.10;;;;;;5112457;27;20586;-64
2023/01/22 09:31:51;;;;;;;106.20;45.25;;;7.80;69.00;;;;;;5109096;27;20081;-65
2023/01/22 09:34:18;;;;;;;99.07;45.53;;;7.80;69.10;;;;;;5109983;27;20095;-68
2023/01/22 09:36:44;;;;;;;95.40;41.38;;;7.80;69.10;;;;;;5108362;28;20795;-66
2023/01/22 09:39:11;;;;;;;101.60;41.15;;;7.70;67.50;;;;;;5109261;27;20527;-67
2023/01/22 09:41:39;;;;;;;;;;;7.60;68.20;;;;;;5105584;28;20091;-65
2023/01/22 09:44:09;;;;;;;86.50;39.47;;;7.60;69.60;;;;;;5105635;28;20002;-67
2023/01/22 09:46:50;;;;;;;78.40;38.90;;;7.60;69.50;;;;;;5110311;27;20129;-66
2023/01/22 09:49:18;;;;;;;93.47;39.25;;;7.50;70.40;;;;;;5107674;28;20133;-67
2023/01/22 09:51:55;;;;;;;108.07;42.42;;;7.40;70.50;;;;;;5107235;28;20729;-66
2023/01/22 09:54:23;;;;;;;108.35;41.65;;;7.50;70.00;;;;;;5106619;27;20082;-66
2023/01/22 09:56:55;;;;;;;106.65;41.72;;;7.50;70.00;;;;;;5110584;28;20519;-67
2023/01/22 09:59:35;;;;;;;106.38;40.78;;;7.50;69.90;;;;;;5089278;28;20086;-68
2023/01/22 10:02:31;;;;;;;103.60;43.25;;;7.40;69.20;;;;;;5108627;28;20065;-66
2023/01/22 10:05:03;;;;;;;97.43;42.97;;;7.50;69.80;;;;;;5013307;28;20083;-66
2023/01/22 10:07:40;;;;;;;94.85;43.25;;;7.50;69.50;;;;;;5008868;28;20088;-65
2023/01/22 10:10:27;;;;;;;110.10;42.60;;;7.40;69.60;;;;;;5010536;28;20096;-66
2023/01/22 10:13:19;;;;;;;99.70;39.72;;;7.40;70.30;;;;;;5007844;28;20152;-66
2023/01/22 10:15:47;;;;;;;100.18;42.58;;;7.40;70.50;;;;;;5010202;28;20190;-65
2023/01/22 10:18:31;;;;;;;117.45;45.53;;;7.30;71.80;;;;;;4999341;28;20122;-66
2023/01/22 10:21:02;;;;;;;112.65;45.15;;;7.20;71.50;;;;;;5011490;28;20674;-68
2023/01/22 10:23:32;;;;;;;123.63;42.22;;;7.20;71.00;;;;;;5010219;28;20084;-66
2023/01/22 10:26:13;;;;;;;112.05;43.13;;;7.30;71.50;;;;;;5010767;28;20080;-65
2023/01/22 10:28:50;;;;;;;123.65;48.80;;;7.30;71.10;;;;;;5011601;28;20083;-67
2023/01/22 10:31:39;;;;;;;113.07;48.67;;;7.30;71.40;;;;;;5011915;28;20121;-66
2023/01/22 10:34:34;;;;;;;120.68;46.33;;;7.20;71.20;;;;;;5014868;28;20460;-65
2023/01/22 10:37:13;;;;;;;130.65;51.33;;;7.10;71.70;;;;;;5012861;28;20567;-68
2023/01/22 10:39:51;;;;;;;138.38;54.28;;;7.10;71.80;;;;;;5016302;28;20092;-67
2023/01/22 10:42:24;;;;;;;136.82;54.90;;;7.20;72.10;;;;;;5076228;27;20086;-67
2023/01/22 10:44:56;;;;;;;145.85;59.85;;;7.20;72.30;;;;;;5110740;28;20074;-65
2023/01/22 10:47:26;;;;;;;152.70;56.40;;;7.20;72.30;;;;;;5112978;27;20429;-65
2023/01/22 10:50:05;;;;;;;159.43;60.28;;;7.20;72.70;;;;;;5112663;27;20118;-67
2023/01/22 10:52:52;;;;;;;163.70;60.00;;;7.20;72.90;;;;;;5112660;27;20071;-66
2023/01/22 10:55:22;;;;;;;;;;;7.20;73.20;;;;;;5111766;27;20067;-65
2023/01/22 10:57:55;;;;;;;162.75;66.75;;;7.00;73.70;;;;;;5112942;27;19962;-66
2023/01/22 11:00:30;;;;;;;148.38;63.65;;;6.90;74.90;;;;;;5114615;27;20134;-67
2023/01/22 11:02:57;;;;;;;155.43;61.17;;;6.90;74.30;;;;;;5112884;27;21226;-65
2023/01/22 11:05:27;;;;;;;168.13;61.72;;;7.00;74.10;;;;;;5111343;27;20082;-65
2023/01/22 11:08:06;;;;;;;164.65;66.38;;;7.00;73.80;;;;;;5113942;27;20105;-65
2023/01/22 11:10:47;;;;;;;152.15;64.20;;;6.90;74.20;;;;;;5111289;27;20393;-66
2023/01/22 11:13:41;;;;;;;159.50;68.45;;;6.80;74.90;;;;;;5115284;27;20088;-65
2023/01/22 11:16:15;;;;;;;166.90;67.70;;;6.70;76.00;;;;;;5111419;27;20105;-67
2023/01/22 11:18:58;;;;;;;168.52;63.92;;;6.70;75.30;;;;;;5112649;27;21303;-65
2023/01/22 11:21:34;;;;;;;160.07;67.78;;;6.80;75.40;;;;;;5109673;27;20438;-67
2023/01/22 11:24:03;;;;;;;162.82;66.07;;;6.80;75.90;;;;;;5110640;28;20534;-67
2023/01/22 11:27:02;;;;;;;164.57;64.97;;;6.90;76.00;;;;;;5110756;27;20151;-66
2023/01/22 11:29:51;;;;;;;163.27;67.68;;;6.90;75.50;;;;;;5087701;27;20090;-65
2023/01/22 11:32:35;;;;;;;153.48;63.60;;;6.80;75.20;;;;;;5111070;27;20082;-67
2023/01/22 11:35:11;;;;;;;188.65;69.63;;;6.80;75.70;;;;;;5112611;27;20104;-65
2023/01/22 11:38:05;;;;;;;181.13;71.63;;;6.80;75.20;;;;;;5110736;27;20549;-69
2023/01/22 11:41:01;;;;;;;194.45;78.97;;;6.80;75.20;;;;;;5111163;27;20566;-67
2023/01/22 11:43:46;;;;;;;192.40;78.15;;;6.70;75.50;;;;;;5107050;27;20078;-65
2023/01/22 11:46:28;;;;;;;205.88;76.28;;;6.70;76.80;;;;;;5108627;28;20077;-67
2023/01/22 11:49:02;;;;;;;202.57;81.25;;;6.60;76.20;;;;;;5109605;27;20070;-67
2023/01/22 11:51:50;;;;;;;195.77;75.78;;;6.60;76.40;;;;;;5111026;27;20169;-69
2023/01/22 11:54:48;;;;;;;185.48;75.18;;;6.70;76.70;;;;;;5108487;28;20077;-66
2023/01/22 11:57:35;;;;;;;184.93;76.95;;;6.60;77.20;;;;;;5112040;28;20443;-67
2023/01/22 12:00:22;;;;;;;202.77;82.15;;;6.50;77.00;;;;;;5112933;27;20132;-66
2023/01/22 12:02:49;;;;;;;188.52;81.40;;;6.50;76.50;;;;;;5110580;27;20067;-67
2023/01/22 12:05:21;;;;;;;219.75;86.40;;;6.50;76.10;;;;;;5110342;28;20079;-66
2023/01/22 12:08:03;;;;;;;215.52;88.55;;;6.60;76.20;;;;;;5109988;28;20612;-65
2023/01/22 12:11:07;;;;;;;201.32;83.45;;;6.60;75.80;;;;;;5110283;27;20129;-66
2023/01/22 12:13:42;;;;;;;181.63;77.88;;;6.60;75.90;;;;;;5050974;28;20075;-67
2023/01/22 12:16:28;;;;;;;206.45;83.60;;;6.50;75.00;;;;;;5055279;28;20447;-65
2023/01/22 12:19:24;;;;;;;195.50;83.45;;;6.50;75.10;;;;;;5050938;28;20180;-67
2023/01/22 12:22:26;;;;;;;193.00;79.78;;;6.60;75.20;;;;;;5055611;28;20437;-68
2023/01/22 12:25:14;;;;;;;196.18;81.25;;;6.60;75.10;;;;;;5041680;28;20080;-69
2023/01/22 12:27:43;;;;;;;;;;;6.50;74.90;;;;;;5055689;28;20108;-68
2023/01/22 12:30:15;;;;;;;189.07;75.82;;;6.50;75.70;;;;;;5049710;28;19963;-67
2023/01/22 12:32:47;;;;;;;194.30;76.07;;;6.50;74.90;;;;;;5052083;28;20603;-67
2023/01/22 12:35:19;;;;;;;193.88;78.07;;;6.60;75.40;;;;;;5053365;28;20075;-66
2023/01/22 12:37:56;;;;;;;191.75;80.18;;;6.60;75.40;;;;;;5048279;28;20075;-65
2023/01/22 12:41:02;;;;;;;196.65;78.95;;;6.50;74.50;;;;;;5050787;28;20130;-67
2023/01/22 12:43:48;;;;;;;208.85;80.47;;;6.50;74.60;;;;;;5024676;28;20428;-65
2023/01/22 12:46:14;;;;;;;202.17;78.10;;;6.50;74.80;;;;;;5111299;27;20073;-67
2023/01/22 12:48:53;;;;;;;181.90;80.20;;;6.50;74.60;;;;;;5111321;27;20082;-67
2023/01/22 12:51:41;;;;;;;190.50;81.25;;;6.40;74.60;;;;;;5109452;27;20078;-65
2023/01/22 12:54:28;;;;;;;176.90;76.88;;;6.40;75.00;;;;;;5107450;28;20071;-68
2023/01/22 12:57:19;;;;;;;202.45;79.07;;;6.40;75.10;;;;;;5089949;28;20091;-67
2023/01/22 12:59:51;;;;;;;189.63;80.07;;;6.40;75.50;;;;;;5098286;28;20095;-66
2023/01/22 13:02:22;;;;;;;186.45;76.95;;;6.40;75.40;;;;;;5107843;28;20070;-66
2023/01/22 13:04:49;;;;;;;187.73;79.80;;;6.40;74.90;;;;;;5112513;27;20067;-67
2023/01/22 13:07:33;;;;;;;172.43;75.70;;;6.30;74.80;;;;;;5108413;28;20087;-68